createdAt,value
2022-12-31T00:01:56.625Z,97.77
2022-12-31T00:06:58.323Z,97.66
2022-12-31T00:11:59.965Z,97.50
2022-12-31T00:17:01.704Z,97.85
2022-12-31T00:22:03.469Z,97.24
2022-12-31T00:27:05.081Z,97.40
2022-12-31T00:32:06.761Z,97.56
2022-12-31T00:37:08.450Z,96.73
2022-12-31T00:42:10.150Z,97.08
2022-12-31T00:47:11.811Z,97.02
2022-12-31T00:52:15.927Z,96.82
2022-12-31T00:57:17.628Z,97.35
2022-12-31T01:02:19.450Z,97.70
2022-12-31T01:07:21.294Z,98.70
2022-12-31T01:12:25.200Z,97.77
2022-12-31T01:17:28.416Z,97.93
2022-12-31T01:22:30.123Z,97.78
2022-12-31T01:27:31.893Z,97.90
2022-12-31T01:32:33.547Z,98.18
2022-12-31T01:37:35.434Z,98.80
2022-12-31T01:42:37.251Z,97.56
2022-12-31T01:47:45.638Z,97.80
2022-12-31T01:52:53.053Z,97.32
2022-12-31T01:57:59.335Z,97.73
2022-12-31T02:03:01.446Z,97.90
2022-12-31T02:08:03.733Z,98.42
2022-12-31T02:13:05.656Z,98.59
2022-12-31T02:18:32.479Z,98.22
2022-12-31T02:23:49.408Z,98.96
2022-12-31T02:29:09.756Z,98.55
2022-12-31T02:34:11.377Z,97.79
2022-12-31T02:39:14.601Z,98.36
2022-12-31T02:44:28.041Z,98.10
2022-12-31T02:49:47.786Z,98.48
2022-12-31T02:55:26.868Z,97.86
2022-12-31T03:00:49.692Z,98.05
2022-12-31T03:05:51.990Z,98.12
2022-12-31T03:10:53.804Z,98.63
2022-12-31T03:15:55.497Z,98.26
2022-12-31T03:21:22.753Z,97.81
2022-12-31T03:26:26.739Z,98.26
2022-12-31T03:31:28.419Z,98.46
2022-12-31T03:36:30.096Z,98.23
2022-12-31T03:41:31.733Z,97.94
2022-12-31T03:46:33.420Z,98.20
2022-12-31T03:51:35.065Z,98.76
2022-12-31T03:56:36.724Z,98.47
2022-12-31T04:01:38.544Z,98.31
2022-12-31T04:06:40.718Z,98.57
2022-12-31T04:11:42.456Z,98.27
2022-12-31T04:16:44.839Z,98.37
2022-12-31T04:21:46.648Z,98.20
2022-12-31T04:26:48.803Z,98.43
2022-12-31T04:31:50.720Z,98.21
2022-12-31T04:36:52.468Z,98.73
2022-12-31T04:41:54.606Z,98.52
2022-12-31T04:46:56.264Z,98.20
2022-12-31T04:51:58.103Z,98.17
2022-12-31T04:56:59.775Z,98.00
2022-12-31T05:02:01.760Z,98.62
2022-12-31T05:07:03.677Z,97.78
2022-12-31T05:12:05.725Z,98.17
2022-12-31T05:17:07.430Z,98.56
2022-12-31T05:22:27.533Z,98.26
2022-12-31T05:27:31.395Z,98.51
2022-12-31T05:32:33.750Z,97.89
2022-12-31T05:37:35.380Z,98.11
2022-12-31T05:42:37.228Z,98.15
2022-12-31T05:47:42.343Z,97.89
2022-12-31T05:52:47.660Z,98.23
2022-12-31T05:57:49.670Z,98.46
2022-12-31T06:02:51.472Z,98.21
2022-12-31T06:07:53.182Z,98.81
2022-12-31T06:12:54.849Z,99.02
2022-12-31T06:17:56.592Z,98.60
2022-12-31T06:22:58.390Z,98.92
2022-12-31T06:28:00.175Z,99.12
2022-12-31T06:33:01.900Z,98.77
2022-12-31T06:38:03.762Z,99.47
2022-12-31T06:43:05.911Z,99.07
2022-12-31T06:48:07.887Z,98.99
2022-12-31T06:53:09.668Z,100.00
2022-12-31T06:58:16.096Z,100.00
2022-12-31T07:03:43.997Z,100.00
2022-12-31T07:08:59.344Z,100.00
2022-12-31T07:14:22.366Z,100.00
2022-12-31T07:20:03.488Z,99.71
2022-12-31T07:25:07.268Z,100.00
2022-12-31T07:30:16.177Z,99.97
2022-12-31T07:35:18.753Z,100.00
2022-12-31T07:40:43.817Z,100.00
2022-12-31T07:45:55.160Z,100.00
2022-12-31T07:50:57.943Z,99.87
2022-12-31T07:56:01.864Z,100.00
2022-12-31T08:01:04.395Z,100.00
2022-12-31T08:06:34.248Z,100.00
2022-12-31T08:11:47.523Z,100.00
2022-12-31T08:16:49.723Z,100.00
2022-12-31T08:22:28.964Z,100.00
2022-12-31T08:27:49.300Z,100.00
2022-12-31T08:33:13.578Z,100.00
2022-12-31T08:38:27.710Z,100.00
2022-12-31T08:43:55.496Z,100.00
2022-12-31T08:48:57.552Z,100.00
2022-12-31T08:53:59.563Z,100.00
2022-12-31T08:59:28.180Z,100.00
2022-12-31T09:05:08.027Z,100.00
2022-12-31T09:10:35.721Z,100.00
2022-12-31T09:15:47.201Z,100.00
2022-12-31T09:20:49.141Z,100.00
2022-12-31T09:26:15.609Z,100.00
2022-12-31T09:31:27.254Z,100.00
2022-12-31T09:36:53.266Z,100.00
2022-12-31T09:42:00.790Z,100.00
2022-12-31T09:47:35.091Z,100.00
2022-12-31T09:52:58.711Z,100.00
2022-12-31T09:58:18.694Z,100.00
2022-12-31T10:03:54.387Z,100.00
2022-12-31T10:09:14.177Z,100.00
2022-12-31T10:14:46.981Z,100.00
2022-12-31T10:20:15.742Z,100.00
2022-12-31T10:25:51.363Z,100.00
2022-12-31T10:31:15.422Z,100.00
2022-12-31T10:36:31.965Z,99.95
2022-12-31T10:42:11.092Z,100.00
2022-12-31T10:48:00.567Z,100.00
2022-12-31T10:53:39.838Z,99.76
2022-12-31T10:59:03.191Z,99.66
2022-12-31T11:04:14.014Z,98.52
2022-12-31T11:09:34.593Z,98.47
2022-12-31T11:14:42.475Z,96.71
2022-12-31T11:19:51.778Z,96.79
2022-12-31T11:25:13.344Z,96.44
2022-12-31T11:30:51.750Z,96.26
2022-12-31T11:36:19.913Z,95.08
2022-12-31T11:41:39.822Z,93.70
2022-12-31T11:46:50.530Z,93.28
2022-12-31T11:51:52.266Z,94.17
2022-12-31T11:57:10.544Z,92.10
2022-12-31T12:02:36.217Z,92.36
2022-12-31T12:07:38.674Z,94.30
2022-12-31T12:12:42.101Z,93.25
2022-12-31T12:17:44.045Z,90.89
2022-12-31T12:22:56.454Z,93.08
2022-12-31T12:27:58.165Z,93.88
2022-12-31T12:33:04.847Z,89.13
2022-12-31T12:38:12.715Z,82.33
2022-12-31T12:43:27.291Z,88.95
2022-12-31T12:48:40.178Z,91.62
2022-12-31T12:54:20.834Z,88.89
2022-12-31T12:59:44.187Z,91.30
2022-12-31T13:05:03.007Z,90.36
2022-12-31T13:10:33.150Z,91.16
2022-12-31T13:15:45.623Z,93.85
2022-12-31T13:21:01.476Z,90.49
2022-12-31T13:26:19.998Z,91.72
2022-12-31T13:31:28.959Z,89.75
2022-12-31T13:36:33.038Z,88.77
2022-12-31T13:41:45.418Z,90.75
2022-12-31T13:46:54.170Z,86.68
2022-12-31T13:52:17.904Z,91.24
2022-12-31T13:57:33.778Z,96.30
2022-12-31T14:02:54.049Z,92.35
2022-12-31T14:07:59.696Z,95.80
2022-12-31T14:13:04.314Z,94.49
2022-12-31T14:18:33.502Z,96.06
2022-12-31T14:24:04.276Z,96.00
2022-12-31T14:29:09.055Z,98.21
2022-12-31T14:34:49.831Z,97.89
2022-12-31T14:39:57.316Z,98.59
2022-12-31T14:45:15.345Z,98.34
2022-12-31T14:50:29.120Z,100.00
2022-12-31T14:55:35.893Z,100.00
2022-12-31T15:00:38.970Z,100.00
2022-12-31T15:05:54.300Z,100.00
2022-12-31T15:11:26.728Z,100.00
2022-12-31T15:17:05.992Z,100.00
2022-12-31T15:22:22.636Z,100.00
2022-12-31T15:27:37.979Z,100.00
2022-12-31T15:32:42.521Z,100.00
2022-12-31T15:37:44.212Z,100.00
2022-12-31T15:42:55.596Z,100.00
2022-12-31T15:48:00.471Z,100.00
2022-12-31T15:53:07.179Z,100.00
2022-12-31T15:58:26.568Z,100.00
2022-12-31T16:03:30.936Z,100.00
2022-12-31T16:08:34.749Z,100.00
2022-12-31T16:13:41.960Z,100.00
2022-12-31T16:18:44.215Z,100.00
2022-12-31T16:23:51.324Z,100.00
2022-12-31T16:28:53.133Z,100.00
2022-12-31T16:34:13.849Z,100.00
2022-12-31T16:39:39.357Z,100.00
2022-12-31T16:44:41.788Z,100.00
2022-12-31T16:49:46.437Z,100.00
2022-12-31T16:54:49.059Z,100.00
2022-12-31T17:00:00.467Z,100.00
2022-12-31T17:05:02.429Z,100.00
2022-12-31T17:10:06.763Z,100.00
2022-12-31T17:15:19.609Z,100.00
2022-12-31T17:20:28.012Z,100.00
2022-12-31T17:25:36.310Z,100.00
2022-12-31T17:30:42.438Z,100.00
2022-12-31T17:35:45.426Z,100.00
2022-12-31T17:40:51.740Z,100.00
2022-12-31T17:45:54.957Z,100.00
2022-12-31T17:50:59.515Z,100.00
2022-12-31T17:56:05.283Z,100.00
2022-12-31T18:01:08.844Z,100.00
2022-12-31T18:06:16.628Z,100.00
2022-12-31T18:11:22.286Z,100.00
2022-12-31T18:16:24.498Z,100.00
2022-12-31T18:21:32.725Z,100.00
2022-12-31T18:26:34.793Z,100.00
2022-12-31T18:31:37.106Z,100.00
2022-12-31T18:36:38.889Z,100.00
2022-12-31T18:41:49.508Z,100.00
2022-12-31T18:46:51.486Z,100.00
2022-12-31T18:51:54.378Z,100.00
2022-12-31T18:56:57.347Z,100.00
2022-12-31T19:01:59.208Z,100.00
2022-12-31T19:07:00.924Z,100.00
2022-12-31T19:12:02.699Z,100.00
2022-12-31T19:22:04.937Z,100.00
2022-12-31T19:27:06.680Z,100.00
2022-12-31T19:32:08.402Z,100.00
2022-12-31T19:37:15.237Z,100.00
2022-12-31T19:42:16.786Z,100.00
2022-12-31T19:47:18.765Z,100.00
2022-12-31T19:52:20.421Z,100.00
2022-12-31T19:57:22.158Z,100.00
2022-12-31T20:02:23.934Z,100.00
2022-12-31T20:07:27.348Z,100.00
2022-12-31T20:12:29.336Z,100.00
2022-12-31T20:17:31.155Z,100.00
2022-12-31T20:22:33.088Z,100.00
2022-12-31T20:27:35.251Z,100.00
2022-12-31T20:32:36.944Z,100.00
2022-12-31T20:37:38.634Z,100.00
2022-12-31T20:42:41.240Z,100.00
2022-12-31T20:47:42.961Z,100.00
2022-12-31T20:52:44.801Z,100.00
2022-12-31T20:57:46.481Z,100.00
2022-12-31T21:02:57.653Z,100.00
2022-12-31T21:08:05.739Z,100.00
2022-12-31T21:13:07.804Z,100.00
2022-12-31T21:18:09.466Z,100.00
2022-12-31T21:23:11.065Z,100.00
2022-12-31T21:28:13.251Z,100.00
2022-12-31T21:33:14.901Z,100.00
2022-12-31T21:38:16.914Z,100.00
2022-12-31T21:43:19.130Z,100.00
2022-12-31T21:48:20.828Z,100.00
2022-12-31T21:53:30.551Z,100.00
2022-12-31T21:58:40.320Z,100.00
2022-12-31T22:03:42.627Z,100.00
2022-12-31T22:08:45.969Z,100.00
2022-12-31T22:13:48.856Z,100.00
2022-12-31T22:18:50.742Z,100.00
2022-12-31T22:23:54.950Z,100.00
2022-12-31T22:28:59.976Z,100.00
2022-12-31T22:34:02.130Z,100.00
2022-12-31T22:39:03.970Z,100.00
2022-12-31T22:44:05.854Z,100.00
2022-12-31T22:49:12.248Z,100.00
2022-12-31T22:54:14.994Z,100.00
2022-12-31T22:59:17.473Z,100.00
2022-12-31T23:04:19.278Z,100.00
2022-12-31T23:09:39.720Z,100.00
2022-12-31T23:15:00.258Z,100.00
2022-12-31T23:20:21.459Z,100.00
2022-12-31T23:25:23.190Z,100.00
2022-12-31T23:30:25.016Z,100.00
2022-12-31T23:35:26.755Z,99.78
2022-12-31T23:40:34.388Z,99.90
2022-12-31T23:45:36.750Z,100.00
2022-12-31T23:50:40.702Z,100.00
2022-12-31T23:55:42.438Z,100.00
